Time;durP1;ratioP1;P1;durP2;ratioP2;P2;SDS_P1;SDS_P2;PMS_P1;PMS_P2;Temp;Humidity;BMP_temperature;BMP_pressure;BME280_temperature;BME280_humidity;BME280_pressure;Samples;Min_cycle;Max_cycle;Signal;HPM_P1;HPM_P2
2022/10/23 00:01:25;;;;;;;23.58;16.50;;;12.20;99.90;;;;;;5041871;28;20076;-77
2022/10/23 00:04:00;;;;;;;18.52;15.05;;;12.20;99.90;;;;;;5042590;28;20120;-77
2022/10/23 00:06:26;;;;;;;16.17;14.27;;;12.10;99.90;;;;;;5060938;28;20386;-76
2022/10/23 00:08:52;;;;;;;17.38;15.18;;;12.10;99.90;;;;;;5061525;28;20385;-76
2022/10/23 00:11:22;;;;;;;21.67;17.70;;;12.10;99.90;;;;;;5056830;28;20036;-78
2022/10/23 00:13:48;;;;;;;20.48;16.45;;;12.10;99.90;;;;;;5044199;28;20049;-77
2022/10/23 00:16:13;;;;;;;19.60;15.52;;;12.10;99.90;;;;;;5061847;28;20056;-77
2022/10/23 00:18:40;;;;;;;20.63;15.50;;;12.10;99.90;;;;;;5038899;28;20052;-78
2022/10/23 00:21:07;;;;;;;20.08;15.05;;;12.10;99.90;;;;;;5062425;28;20083;-77
2022/10/23 00:23:33;;;;;;;19.58;15.07;;;12.10;99.90;;;;;;5057902;28;20120;-77
2022/10/23 00:25:59;;;;;;;15.57;12.82;;;12.20;99.90;;;;;;5040600;28;20528;-77
2022/10/23 00:28:25;;;;;;;17.65;13.48;;;12.20;99.90;;;;;;5055469;28;20044;-77
2022/10/23 00:30:51;;;;;;;19.25;13.43;;;12.10;99.90;;;;;;5042768;28;20045;-77
2022/10/23 00:33:17;;;;;;;17.20;14.10;;;12.10;99.90;;;;;;5060881;28;20046;-77
2022/10/23 00:35:43;;;;;;;17.50;12.85;;;12.10;99.90;;;;;;5059749;28;20079;-77
2022/10/23 00:38:09;;;;;;;16.45;13.27;;;12.10;99.90;;;;;;5060464;28;20485;-77
2022/10/23 00:40:36;;;;;;;18.97;14.50;;;12.10;99.90;;;;;;5064699;28;20387;-78
2022/10/23 00:43:02;;;;;;;16.95;14.10;;;12.10;99.90;;;;;;5042955;28;20515;-77
2022/10/23 00:45:33;;;;;;;20.73;13.73;;;12.10;99.90;;;;;;5062403;28;20040;-77
2022/10/23 00:48:00;;;;;;;15.05;12.15;;;12.10;99.90;;;;;;5043913;28;20052;-78
2022/10/23 00:50:30;;;;;;;15.88;12.85;;;12.00;99.90;;;;;;5065586;28;20046;-77
2022/10/23 00:52:58;;;;;;;21.15;14.57;;;12.00;99.90;;;;;;5063475;28;20079;-77
2022/10/23 00:55:25;;;;;;;17.40;12.77;;;12.00;99.90;;;;;;5049881;28;20045;-77
2022/10/23 00:57:51;;;;;;;16.17;13.63;;;11.90;99.90;;;;;;5042784;28;20448;-77
2022/10/23 01:00:24;;;;;;;20.20;14.60;;;11.90;99.90;;;;;;5056609;28;20495;-77
2022/10/23 01:02:50;;;;;;;16.73;12.95;;;11.90;99.90;;;;;;5062710;28;22189;-77
2022/10/23 01:05:17;;;;;;;17.63;13.20;;;11.90;99.90;;;;;;5038998;28;20557;-77
2022/10/23 01:08:02;;;;;;;15.13;12.90;;;11.90;99.90;;;;;;5041929;28;20101;-77
2022/10/23 01:10:52;;;;;;;17.48;12.65;;;11.80;99.90;;;;;;5061255;28;20033;-78
2022/10/23 01:13:52;;;;;;;18.23;13.18;;;11.80;99.90;;;;;;5056768;28;20494;-77
2022/10/23 01:16:26;;;;;;;15.65;12.43;;;11.80;99.90;;;;;;5024775;28;20045;-77
2022/10/23 01:19:32;;;;;;;16.92;14.00;;;11.80;99.90;;;;;;5044298;28;20056;-78
2022/10/23 01:22:02;;;;;;;19.75;16.38;;;11.80;99.90;;;;;;5060895;28;20037;-77
2022/10/23 01:24:47;;;;;;;22.77;18.35;;;11.90;99.90;;;;;;5056779;28;20112;-77
2022/10/23 01:27:22;;;;;;;26.55;19.10;;;11.80;99.90;;;;;;5053755;28;20045;-77
2022/10/23 01:30:03;;;;;;;25.48;19.50;;;11.80;99.90;;;;;;5045524;28;20048;-77
2022/10/23 01:32:38;;;;;;;20.08;16.02;;;11.90;99.90;;;;;;5043928;28;20414;-77
2022/10/23 01:35:08;;;;;;;21.55;17.02;;;11.80;99.90;;;;;;5063110;28;20055;-77
2022/10/23 01:37:42;;;;;;;25.38;19.15;;;11.80;99.90;;;;;;5042044;28;20456;-77
2022/10/23 01:40:31;;;;;;;20.58;16.85;;;11.80;99.90;;;;;;5047856;28;20076;-77
2022/10/23 01:43:03;;;;;;;16.40;14.70;;;11.80;99.90;;;;;;5060751;28;20090;-77
2022/10/23 01:45:40;;;;;;;25.00;17.10;;;11.80;99.90;;;;;;5048733;28;20106;-78
2022/10/23 01:48:09;;;;;;;21.30;17.10;;;11.70;99.90;;;;;;5067443;28;20721;-77
2022/10/23 01:50:35;;;;;;;20.77;16.23;;;11.70;99.90;;;;;;5065137;28;20040;-77
2022/10/23 01:53:03;;;;;;;22.20;17.92;;;11.70;99.90;;;;;;5044924;28;20045;-75
2022/10/23 01:55:31;;;;;;;19.55;16.60;;;11.70;99.90;;;;;;5048038;28;20040;-76
2022/10/23 01:57:58;;;;;;;20.13;15.57;;;11.60;99.90;;;;;;5044233;28;20414;-76
2022/10/23 02:00:24;;;;;;;20.88;15.95;;;11.60;99.90;;;;;;5044617;28;20106;-78
2022/10/23 02:02:51;;;;;;;27.65;20.20;;;11.60;99.90;;;;;;5060809;28;20037;-78
2022/10/23 02:05:22;;;;;;;;;;;11.70;99.90;;;;;;5046634;28;20522;-78
2022/10/23 02:07:49;;;;;;;24.90;19.55;;;11.60;99.90;;;;;;5039674;28;20541;-77
2022/10/23 02:10:15;;;;;;;21.95;17.42;;;11.60;99.90;;;;;;5047933;28;20495;-78
2022/10/23 02:13:18;;;;;;;21.50;16.17;;;11.60;99.90;;;;;;5062887;28;20033;-77
2022/10/23 02:16:00;;;;;;;19.50;15.45;;;11.60;99.90;;;;;;5061295;28;20064;-79
2022/10/23 02:18:42;;;;;;;18.88;15.18;;;11.60;99.90;;;;;;5060883;28;20664;-78
2022/10/23 02:21:21;;;;;;;20.90;15.80;;;11.70;99.90;;;;;;5065789;28;20095;-77
2022/10/23 02:23:51;;;;;;;21.17;14.95;;;11.70;99.90;;;;;;5060319;28;20458;-77
2022/10/23 02:26:22;;;;;;;16.70;14.02;;;11.70;99.90;;;;;;5045915;28;20400;-77
2022/10/23 02:28:58;;;;;;;18.20;14.38;;;11.60;99.90;;;;;;5058171;28;20098;-77
2022/10/23 02:31:24;;;;;;;16.50;14.35;;;11.70;99.90;;;;;;5041153;28;20086;-77
2022/10/23 02:33:50;;;;;;;18.58;13.80;;;11.60;99.90;;;;;;5046015;28;20041;-77
2022/10/23 02:36:18;;;;;;;18.88;15.00;;;11.60;99.90;;;;;;5064276;28;20094;-78
2022/10/23 02:38:44;;;;;;;18.63;14.57;;;11.60;99.90;;;;;;5058610;28;20062;-77
2022/10/23 02:41:15;;;;;;;17.60;14.63;;;11.60;99.90;;;;;;5062608;28;20098;-77
2022/10/23 02:43:50;;;;;;;21.15;15.10;;;11.60;99.90;;;;;;5044000;28;20045;-77
2022/10/23 02:46:55;;;;;;;21.83;15.52;;;11.60;99.90;;;;;;5058533;28;20111;-77
2022/10/23 02:49:51;;;;;;;22.38;15.07;;;11.60;99.90;;;;;;5047606;28;20487;-77
2022/10/23 02:52:37;;;;;;;;;;;11.60;99.90;;;;;;5064834;28;20123;-77
2022/10/23 02:55:21;;;;;;;18.25;14.32;;;11.50;99.90;;;;;;5034565;28;19921;-77
2022/10/23 02:57:53;;;;;;;20.65;15.10;;;11.50;99.90;;;;;;5059457;28;20044;-78
2022/10/23 03:00:21;;;;;;;21.30;15.57;;;11.50;99.90;;;;;;5062426;28;20119;-77
2022/10/23 03:03:00;;;;;;;20.00;15.20;;;11.50;99.90;;;;;;5044597;28;20490;-77
2022/10/23 03:05:31;;;;;;;22.85;15.38;;;11.50;99.90;;;;;;5049725;28;20106;-78
2022/10/23 03:07:56;;;;;;;21.60;17.63;;;11.50;99.90;;;;;;5060803;28;20055;-77
2022/10/23 03:10:22;;;;;;;26.55;16.77;;;11.50;99.90;;;;;;5043774;28;20045;-76
2022/10/23 03:12:49;;;;;;;21.20;16.60;;;11.50;99.90;;;;;;5061991;28;20056;-76
2022/10/23 03:15:15;;;;;;;22.67;16.27;;;11.50;99.90;;;;;;5042186;28;20052;-76
2022/10/23 03:17:41;;;;;;;22.57;15.17;;;11.50;99.90;;;;;;5047178;28;20045;-76
2022/10/23 03:20:08;;;;;;;17.75;13.32;;;11.50;99.90;;;;;;5065366;28;20604;-76
2022/10/23 03:22:34;;;;;;;16.98;13.38;;;11.50;99.90;;;;;;5063702;28;20455;-76
2022/10/23 03:24:59;;;;;;;16.00;13.43;;;11.50;99.90;;;;;;5058450;28;20133;-76
2022/10/23 03:27:25;;;;;;;19.83;13.88;;;11.40;99.90;;;;;;5062392;28;20136;-77
2022/10/23 03:29:51;;;;;;;18.75;14.23;;;11.40;99.90;;;;;;5060906;28;20053;-77
2022/10/23 03:32:16;;;;;;;21.15;14.32;;;11.40;99.90;;;;;;5042367;28;20072;-78
2022/10/23 03:34:42;;;;;;;17.95;14.25;;;11.40;99.90;;;;;;5043838;28;20036;-76
2022/10/23 03:37:08;;;;;;;21.20;16.13;;;11.40;99.90;;;;;;5044600;28;20055;-76
2022/10/23 03:39:33;;;;;;;21.63;17.20;;;11.40;99.90;;;;;;5058326;28;20768;-76
2022/10/23 03:41:59;;;;;;;22.92;16.20;;;11.30;99.90;;;;;;5063166;28;20052;-76
2022/10/23 03:44:25;;;;;;;21.83;18.27;;;11.30;99.90;;;;;;5061866;28;20048;-76
2022/10/23 03:46:50;;;;;;;23.95;18.58;;;11.30;99.90;;;;;;5057500;28;20048;-77
2022/10/23 03:49:16;;;;;;;19.90;15.30;;;11.30;99.90;;;;;;5045081;28;20052;-76
2022/10/23 03:51:43;;;;;;;17.90;15.00;;;11.30;99.90;;;;;;5065311;28;20082;-76
2022/10/23 03:54:09;;;;;;;19.67;15.15;;;11.30;99.90;;;;;;5040944;28;20048;-77
2022/10/23 03:56:35;;;;;;;17.70;15.25;;;11.30;99.90;;;;;;5061919;28;20043;-76
2022/10/23 03:59:01;;;;;;;21.23;16.67;;;11.30;99.90;;;;;;5061219;28;20040;-76
2022/10/23 04:01:26;;;;;;;22.83;18.13;;;11.30;99.90;;;;;;5036977;28;20040;-76
2022/10/23 04:03:53;;;;;;;22.83;17.17;;;11.30;99.90;;;;;;5042480;28;20044;-76
2022/10/23 04:06:19;;;;;;;21.58;17.02;;;11.20;99.90;;;;;;5047529;28;20076;-76
2022/10/23 04:08:45;;;;;;;21.40;17.02;;;11.20;99.90;;;;;;5056959;28;20075;-77
2022/10/23 04:11:10;;;;;;;22.60;16.90;;;11.30;99.90;;;;;;5062263;28;20674;-77
2022/10/23 04:13:36;;;;;;;20.83;17.35;;;11.30;99.90;;;;;;5057437;28;20395;-78
2022/10/23 04:16:02;;;;;;;21.60;15.93;;;11.20;99.90;;;;;;5058263;28;20049;-77
2022/10/23 04:18:27;;;;;;;23.60;17.95;;;11.20;99.90;;;;;;5061323;28;20131;-77
2022/10/23 04:20:53;;;;;;;21.25;17.95;;;11.20;99.90;;;;;;5057982;28;20037;-77
2022/10/23 04:23:19;;;;;;;20.38;17.10;;;11.20;99.90;;;;;;5061560;28;20063;-78
2022/10/23 04:25:45;;;;;;;23.92;17.52;;;11.20;99.90;;;;;;5041279;28;20040;-78
2022/10/23 04:28:11;;;;;;;20.63;16.27;;;11.20;99.90;;;;;;5059223;28;20729;-77
2022/10/23 04:30:37;;;;;;;23.15;17.20;;;11.20;99.90;;;;;;5064033;28;20033;-78
2022/10/23 04:33:02;;;;;;;21.27;16.55;;;11.20;99.90;;;;;;5039645;28;20144;-78
2022/10/23 04:35:28;;;;;;;19.85;15.93;;;11.20;99.90;;;;;;5042432;28;20072;-78
2022/10/23 04:37:54;;;;;;;22.00;16.13;;;11.20;99.90;;;;;;5040020;28;20047;-78
2022/10/23 04:40:19;;;;;;;19.92;15.95;;;11.20;99.90;;;;;;5042492;28;20064;-78
2022/10/23 04:42:45;;;;;;;18.95;16.52;;;11.10;99.90;;;;;;5060521;28;20041;-77
2022/10/23 04:45:11;;;;;;;20.85;15.85;;;11.20;99.90;;;;;;5056428;28;20041;-77
2022/10/23 04:47:36;;;;;;;17.63;14.80;;;11.20;99.90;;;;;;5058450;28;20044;-77
2022/10/23 04:50:03;;;;;;;23.70;15.35;;;11.20;99.90;;;;;;5038873;28;20044;-77
2022/10/23 04:52:28;;;;;;;21.15;15.80;;;11.10;99.90;;;;;;5061933;28;20048;-77
2022/10/23 04:54:54;;;;;;;19.35;16.80;;;11.20;99.90;;;;;;5063712;28;20044;-77
2022/10/23 04:57:20;;;;;;;22.45;17.23;;;11.10;99.90;;;;;;5039291;28;20048;-78
2022/10/23 04:59:45;;;;;;;20.80;16.52;;;11.10;99.90;;;;;;5064831;28;20036;-76
2022/10/23 05:02:11;;;;;;;21.17;17.55;;;11.10;99.90;;;;;;5060231;28;20040;-77
2022/10/23 05:04:36;;;;;;;19.67;16.52;;;11.10;99.90;;;;;;5045826;28;20506;-78
2022/10/23 05:07:02;;;;;;;18.05;15.85;;;11.10;99.90;;;;;;5066165;28;20061;-77
2022/10/23 05:09:28;;;;;;;21.42;16.10;;;11.10;99.90;;;;;;5065441;28;20055;-77
2022/10/23 05:11:53;;;;;;;20.40;15.25;;;11.10;99.90;;;;;;5046272;28;20056;-77
2022/10/23 05:14:19;;;;;;;20.20;15.43;;;11.10;99.90;;;;;;5048784;28;20101;-77
2022/10/23 05:16:56;;;;;;;17.10;14.60;;;11.10;99.90;;;;;;5063271;28;20048;-77
2022/10/23 05:19:26;;;;;;;22.25;16.35;;;11.10;99.90;;;;;;5045965;28;20053;-77
2022/10/23 05:21:54;;;;;;;20.33;14.52;;;11.10;99.90;;;;;;5041133;28;20056;-76
2022/10/23 05:24:24;;;;;;;21.92;15.30;;;11.10;99.90;;;;;;5066627;28;20765;-77
2022/10/23 05:26:51;;;;;;;19.08;14.52;;;11.10;99.90;;;;;;5067751;28;20060;-76
2022/10/23 05:29:18;;;;;;;20.30;15.02;;;11.10;99.90;;;;;;5040189;28;20040;-77
2022/10/23 05:31:44;;;;;;;21.42;14.63;;;11.00;99.90;;;;;;5064961;28;20052;-77
2022/10/23 05:34:15;;;;;;;20.17;15.82;;;11.10;99.90;;;;;;5066726;28;20446;-76
2022/10/23 05:36:41;;;;;;;20.45;14.40;;;11.10;99.90;;;;;;5046333;28;20040;-77
2022/10/23 05:39:07;;;;;;;18.83;15.65;;;11.10;99.90;;;;;;5042582;28;20048;-76
2022/10/23 05:41:33;;;;;;;22.40;16.55;;;11.10;99.90;;;;;;5063797;28;20436;-75
2022/10/23 05:43:58;;;;;;;22.42;16.10;;;11.10;99.90;;;;;;5044826;28;20049;-76
2022/10/23 05:46:26;;;;;;;22.38;16.50;;;11.10;99.90;;;;;;5044622;28;20113;-78
2022/10/23 05:48:52;;;;;;;21.00;15.52;;;11.00;99.90;;;;;;5066306;28;20504;-77
2022/10/23 05:51:21;;;;;;;19.15;16.17;;;11.10;99.90;;;;;;5066269;28;20036;-77
2022/10/23 05:53:51;;;;;;;22.45;16.75;;;11.10;99.90;;;;;;5064114;28;20051;-78
2022/10/23 05:56:18;;;;;;;23.85;16.73;;;11.10;99.90;;;;;;5060977;28;20048;-77
2022/10/23 05:58:43;;;;;;;24.67;16.45;;;11.10;99.90;;;;;;5045797;28;20077;-77
2022/10/23 06:01:12;;;;;;;22.00;17.08;;;11.10;99.90;;;;;;5060478;28;20033;-77
2022/10/23 06:03:38;;;;;;;23.42;17.20;;;11.10;99.90;;;;;;5066053;28;20383;-78
2022/10/23 06:06:08;;;;;;;21.73;16.00;;;11.10;99.90;;;;;;5066520;28;20035;-77
2022/10/23 06:08:34;;;;;;;21.98;16.33;;;11.10;99.90;;;;;;5043703;28;20052;-77
2022/10/23 06:11:08;;;;;;;25.50;16.15;;;11.10;99.90;;;;;;5062659;28;20695;-77
2022/10/23 06:13:34;;;;;;;20.27;15.85;;;11.10;99.90;;;;;;5065377;28;20058;-78
2022/10/23 06:16:07;;;;;;;21.15;16.20;;;11.00;99.90;;;;;;5047109;28;20106;-78
2022/10/23 06:18:33;;;;;;;21.88;16.60;;;11.10;99.90;;;;;;5044671;28;20044;-78
2022/10/23 06:21:00;;;;;;;22.35;15.20;;;11.20;99.90;;;;;;5041463;28;20052;-77
2022/10/23 06:23:25;;;;;;;18.13;15.32;;;11.10;99.90;;;;;;5042987;28;20491;-76
2022/10/23 06:25:53;;;;;;;21.00;15.63;;;11.10;99.90;;;;;;5029306;28;20073;-78
2022/10/23 06:28:19;;;;;;;19.48;16.08;;;11.20;99.90;;;;;;5022232;28;20053;-77
2022/10/23 06:30:44;;;;;;;24.38;16.85;;;11.20;99.90;;;;;;5037472;28;20049;-79
2022/10/23 06:33:10;;;;;;;21.23;15.90;;;11.20;99.90;;;;;;5044239;28;20045;-77
2022/10/23 06:35:37;;;;;;;24.88;16.80;;;11.20;99.90;;;;;;5046749;28;20033;-79
2022/10/23 06:38:02;;;;;;;22.60;16.60;;;11.20;99.90;;;;;;5047005;28;20056;-79
2022/10/23 06:40:28;;;;;;;22.52;16.52;;;11.20;99.90;;;;;;5040724;28;20040;-78
2022/10/23 06:42:57;;;;;;;22.67;15.68;;;11.30;99.90;;;;;;5046704;28;20361;-79
2022/10/23 06:45:22;;;;;;;17.70;14.32;;;11.30;99.90;;;;;;5045098;28;20056;-78
2022/10/23 06:47:51;;;;;;;21.95;15.05;;;11.20;99.90;;;;;;5039803;28;20037;-78
2022/10/23 06:50:17;;;;;;;23.10;15.77;;;11.20;99.90;;;;;;5035979;28;20065;-78
2022/10/23 06:52:43;;;;;;;21.45;15.75;;;11.20;99.90;;;;;;5040849;28;20503;-78
2022/10/23 06:55:09;;;;;;;18.95;13.77;;;11.30;99.90;;;;;;5038689;28;20037;-78
2022/10/23 06:57:34;;;;;;;21.00;14.30;;;11.30;99.90;;;;;;5019253;28;20059;-78
2022/10/23 07:00:00;;;;;;;20.38;14.88;;;11.30;99.90;;;;;;5027138;28;20051;-77
2022/10/23 07:02:26;;;;;;;21.73;14.07;;;11.40;99.90;;;;;;5042208;28;20125;-78
2022/10/23 07:04:52;;;;;;;18.08;13.73;;;11.40;99.90;;;;;;5040121;28;20385;-78
2022/10/23 07:07:17;;;;;;;20.15;14.13;;;11.40;99.90;;;;;;5040250;28;20060;-78
2022/10/23 07:09:43;;;;;;;23.73;15.52;;;11.40;99.90;;;;;;5037067;28;20048;-78
2022/10/23 07:12:08;;;;;;;21.45;14.35;;;11.40;99.90;;;;;;5045958;28;20446;-77
2022/10/23 07:14:34;;;;;;;23.30;15.25;;;11.50;99.90;;;;;;5048059;28;20054;-80
2022/10/23 07:17:00;;;;;;;18.92;13.82;;;11.50;99.90;;;;;;5044163;28;20403;-84
2022/10/23 07:19:25;;;;;;;20.83;14.00;;;11.50;99.90;;;;;;5057699;28;20167;-81
2022/10/23 07:21:51;;;;;;;20.30;14.77;;;11.50;99.90;;;;;;5065118;28;20049;-86
2022/10/23 07:24:17;;;;;;;18.90;14.20;;;11.60;99.90;;;;;;5061334;28;20040;-81
2022/10/23 07:26:43;;;;;;;19.15;14.23;;;11.60;99.90;;;;;;5059952;28;20036;-82
2022/10/23 07:29:10;;;;;;;21.02;14.00;;;11.60;99.90;;;;;;5049891;28;20060;-83
2022/10/23 07:31:36;;;;;;;23.20;14.43;;;11.60;99.90;;;;;;5065750;28;22357;-84
2022/10/23 07:34:02;;;;;;;19.80;13.95;;;11.70;99.90;;;;;;5063270;28;20032;-81
2022/10/23 07:36:27;;;;;;;22.50;15.80;;;11.70;99.90;;;;;;5065453;28;20101;-84
2022/10/23 07:38:53;;;;;;;24.95;15.05;;;11.80;99.90;;;;;;5046570;28;20139;-82
2022/10/23 07:41:18;;;;;;;21.30;15.55;;;11.70;99.90;;;;;;5067172;28;20063;-82
2022/10/23 07:43:44;;;;;;;19.73;14.55;;;11.70;99.90;;;;;;5063773;28;20166;-80
2022/10/23 07:46:10;;;;;;;21.55;14.50;;;11.70;99.90;;;;;;5067806;28;20119;-82
2022/10/23 07:48:37;;;;;;;20.10;14.65;;;11.70;99.90;;;;;;5049937;28;20882;-82
2022/10/23 07:51:07;;;;;;;18.00;14.60;;;11.70;99.90;;;;;;5065756;28;20128;-84
2022/10/23 07:53:33;;;;;;;21.42;14.32;;;11.80;99.90;;;;;;5065915;28;20045;-79
2022/10/23 07:56:01;;;;;;;23.03;15.00;;;11.80;99.90;;;;;;5063624;28;20112;-79
2022/10/23 07:58:28;;;;;;;23.88;14.88;;;11.80;99.90;;;;;;5065695;28;20175;-79
2022/10/23 08:01:00;;;;;;;21.42;15.02;;;11.80;99.90;;;;;;5064352;28;20045;-78
2022/10/23 08:03:27;;;;;;;28.10;15.98;;;11.80;99.90;;;;;;5063796;28;20052;-79
2022/10/23 08:05:54;;;;;;;22.05;14.38;;;11.90;99.90;;;;;;5065365;28;20048;-78
2022/10/23 08:08:21;;;;;;;18.60;14.43;;;11.90;99.90;;;;;;5048103;28;20125;-79
2022/10/23 08:10:49;;;;;;;20.00;13.98;;;12.00;99.90;;;;;;5044288;28;20037;-79
2022/10/23 08:13:16;;;;;;;20.65;13.57;;;12.00;99.90;;;;;;5048616;28;20601;-79
2022/10/23 08:15:44;;;;;;;19.10;14.45;;;11.90;99.90;;;;;;5048069;28;20071;-78
2022/10/23 08:18:09;;;;;;;20.70;14.52;;;12.00;99.90;;;;;;5063755;28;20040;-78
2022/10/23 08:20:39;;;;;;;19.52;13.63;;;12.10;99.90;;;;;;5063382;28;20085;-80
2022/10/23 08:23:05;;;;;;;19.98;13.82;;;12.10;99.90;;;;;;5064264;28;20094;-79
2022/10/23 08:25:31;;;;;;;19.27;13.88;;;12.10;99.90;;;;;;5047136;28;20036;-78
2022/10/23 08:27:57;;;;;;;22.85;15.50;;;12.20;99.90;;;;;;5062801;28;20044;-78
2022/10/23 08:30:22;;;;;;;19.67;13.52;;;12.20;99.90;;;;;;5047747;28;20041;-79
2022/10/23 08:32:48;;;;;;;19.15;14.30;;;12.30;99.90;;;;;;5067135;28;20052;-79
2022/10/23 08:35:17;;;;;;;20.17;13.15;;;12.30;99.90;;;;;;5062906;28;20447;-78
2022/10/23 08:37:42;;;;;;;24.52;13.45;;;12.30;99.90;;;;;;5061189;28;20386;-79
2022/10/23 08:40:22;;;;;;;19.73;13.35;;;12.40;99.90;;;;;;5048539;28;20151;-79
2022/10/23 08:42:57;;;;;;;20.90;12.80;;;12.40;99.90;;;;;;5043699;28;20472;-78
2022/10/23 08:45:39;;;;;;;18.48;12.85;;;12.50;99.90;;;;;;5065844;28;20066;-79
2022/10/23 08:48:27;;;;;;;19.70;12.73;;;12.50;99.90;;;;;;5063867;28;20044;-79
2022/10/23 08:50:58;;;;;;;23.00;13.50;;;12.60;99.90;;;;;;5048847;28;20106;-79
2022/10/23 08:53:36;;;;;;;20.17;12.18;;;12.60;99.90;;;;;;5048610;28;20311;-79
2022/10/23 08:56:11;;;;;;;20.10;12.88;;;12.70;99.90;;;;;;5064684;28;20048;-79
2022/10/23 08:58:53;;;;;;;21.80;12.45;;;12.70;99.90;;;;;;5061725;28;20048;-79
2022/10/23 09:01:41;;;;;;;17.33;12.48;;;12.80;99.90;;;;;;5064970;28;20178;-81
2022/10/23 09:04:12;;;;;;;17.83;13.23;;;12.90;99.90;;;;;;5047061;28;20045;-79
2022/10/23 09:07:11;;;;;;;17.08;11.93;;;12.90;99.90;;;;;;5058857;28;20052;-82
2022/10/23 09:09:45;;;;;;;16.42;12.85;;;13.00;99.90;;;;;;5066900;28;20430;-83
2022/10/23 09:12:11;;;;;;;19.92;12.65;;;13.00;99.90;;;;;;5061586;28;20037;-83
2022/10/23 09:14:55;;;;;;;16.92;11.93;;;13.10;99.90;;;;;;5040200;28;20524;-84
2022/10/23 09:17:25;;;;;;;16.45;12.07;;;13.20;99.90;;;;;;5029096;28;20045;-82
2022/10/23 09:20:09;;;;;;;18.17;12.25;;;13.20;99.90;;;;;;5047093;28;20044;-81
2022/10/23 09:22:35;;;;;;;14.43;11.38;;;13.30;99.90;;;;;;5026722;28;20059;-84
2022/10/23 09:25:00;;;;;;;16.77;11.38;;;13.30;99.90;;;;;;5044198;28;20413;-80
2022/10/23 09:27:26;;;;;;;15.70;11.25;;;13.40;99.90;;;;;;5045103;28;20114;-80
2022/10/23 09:29:54;;;;;;;15.93;10.75;;;13.50;99.90;;;;;;5027616;28;20059;-80
2022/10/23 09:32:32;;;;;;;18.55;10.85;;;13.40;99.90;;;;;;5026136;28;20037;-82
2022/10/23 09:34:58;;;;;;;15.48;10.82;;;13.50;99.90;;;;;;5017891;28;20045;-84
2022/10/23 09:37:26;;;;;;;14.55;10.63;;;13.50;99.90;;;;;;5042615;28;20559;-80
2022/10/23 09:40:21;;;;;;;17.13;10.48;;;13.60;99.90;;;;;;5039458;28;20451;-78
2022/10/23 09:43:00;;;;;;;15.63;10.68;;;13.60;99.90;;;;;;5037641;28;20771;-77
2022/10/23 09:45:32;;;;;;;15.70;10.30;;;13.60;99.90;;;;;;5029671;28;20033;-76
2022/10/23 09:48:10;;;;;;;15.40;10.25;;;13.70;99.90;;;;;;5039036;28;20049;-75
2022/10/23 09:50:36;;;;;;;15.98;9.68;;;13.70;99.90;;;;;;5045480;28;20392;-78
2022/10/23 09:53:02;;;;;;;16.52;9.23;;;13.80;99.90;;;;;;5040527;28;20037;-83
2022/10/23 09:55:30;;;;;;;15.20;9.95;;;13.80;99.90;;;;;;5030501;28;20132;-76
2022/10/23 09:57:56;;;;;;;11.18;8.48;;;13.90;99.90;;;;;;5027008;28;21778;-76
2022/10/23 10:00:25;;;;;;;15.30;10.20;;;13.90;99.90;;;;;;5028508;28;20056;-77
2022/10/23 10:02:58;;;;;;;17.75;12.98;;;14.00;99.90;;;;;;5032646;28;20130;-77
2022/10/23 10:05:36;;;;;;;17.60;13.07;;;14.00;99.90;;;;;;5032252;28;20045;-77
2022/10/23 10:08:13;;;;;;;24.73;17.23;;;14.10;99.90;;;;;;5050261;28;20122;-77
2022/10/23 10:10:48;;;;;;;26.85;19.80;;;14.10;99.90;;;;;;5049732;28;20045;-77
2022/10/23 10:13:35;;;;;;;23.52;16.15;;;14.20;99.90;;;;;;5047571;28;20044;-78
2022/10/23 10:16:07;;;;;;;20.33;13.43;;;14.30;99.90;;;;;;5052066;28;20119;-77
2022/10/23 10:18:48;;;;;;;22.08;14.60;;;14.30;99.90;;;;;;5050243;28;20056;-77
2022/10/23 10:21:19;;;;;;;16.60;10.65;;;14.30;99.90;;;;;;5068490;28;20056;-77
2022/10/23 10:24:04;;;;;;;17.70;9.82;;;14.40;99.90;;;;;;5066450;28;20144;-76
2022/10/23 10:26:42;;;;;;;21.13;15.18;;;14.40;99.90;;;;;;5064394;28;20075;-77
2022/10/23 10:29:34;;;;;;;23.98;17.05;;;14.40;99.90;;;;;;5068687;28;20056;-77
2022/10/23 10:32:15;;;;;;;13.27;9.23;;;14.50;99.90;;;;;;5065796;28;20525;-77
2022/10/23 10:34:52;;;;;;;20.77;12.73;;;14.50;99.90;;;;;;5067496;28;20479;-77
2022/10/23 10:37:48;;;;;;;15.43;8.90;;;14.60;99.90;;;;;;5067913;28;20040;-77
2022/10/23 10:40:24;;;;;;;17.75;12.02;;;14.60;99.90;;;;;;5069933;28;20182;-77
2022/10/23 10:43:01;;;;;;;16.35;10.10;;;14.70;99.90;;;;;;5069151;28;20040;-78
2022/10/23 10:45:37;;;;;;;12.10;7.55;;;14.70;99.90;;;;;;5064372;28;20063;-77
2022/10/23 10:48:31;;;;;;;11.82;7.60;;;14.80;99.90;;;;;;5067251;28;20047;-76
2022/10/23 10:51:09;;;;;;;10.18;6.97;;;14.80;99.90;;;;;;5067104;28;20052;-77
2022/10/23 10:54:26;;;;;;;13.55;7.03;;;14.80;99.90;;;;;;5068993;28;20055;-76
2022/10/23 10:56:51;;;;;;;12.57;6.55;;;14.90;99.90;;;;;;5027888;28;20052;-80
2022/10/23 10:59:26;;;;;;;9.13;6.65;;;14.90;99.90;;;;;;5049540;28;20123;-83
2022/10/23 11:02:15;;;;;;;14.98;6.25;;;14.90;99.90;;;;;;5059544;28;20078;-81
2022/10/23 11:04:59;;;;;;;11.60;6.28;;;15.00;99.90;;;;;;5063242;28;20042;-83
2022/10/23 11:07:33;;;;;;;12.48;5.90;;;15.00;99.90;;;;;;5060390;28;20040;-78
2022/10/23 11:10:12;;;;;;;8.60;5.40;;;15.10;99.90;;;;;;5054453;28;20150;-81
2022/10/23 11:12:38;;;;;;;12.80;5.82;;;15.00;99.90;;;;;;5063270;28;20127;-79
2022/10/23 11:15:11;;;;;;;9.85;5.88;;;15.10;99.90;;;;;;5064320;28;20052;-85
2022/10/23 11:17:42;;;;;;;12.55;8.02;;;15.10;99.90;;;;;;5063230;28;20056;-80
2022/10/23 11:20:38;;;;;;;18.08;7.63;;;15.10;99.90;;;;;;5063527;28;20049;-81
2022/10/23 11:23:38;;;;;;;13.48;7.78;;;15.10;99.90;;;;;;5060884;28;20045;-77
2022/10/23 11:26:21;;;;;;;13.70;7.78;;;15.10;99.90;;;;;;5064127;28;20052;-82
2022/10/23 11:29:15;;;;;;;14.80;7.82;;;15.10;99.90;;;;;;5062590;28;20033;-81
2022/10/23 11:32:02;;;;;;;12.48;8.20;;;15.10;99.90;;;;;;5063615;28;20112;-77
2022/10/23 11:34:52;;;;;;;10.18;7.28;;;15.10;99.90;;;;;;5062459;28;20039;-76
2022/10/23 11:37:20;;;;;;;15.10;7.97;;;15.10;99.90;;;;;;5059942;28;20064;-82
2022/10/23 11:40:04;;;;;;;;;;;15.20;99.90;;;;;;5039311;28;20055;-81
2022/10/23 11:42:50;;;;;;;19.40;9.85;;;15.10;99.90;;;;;;5065475;28;19927;-84
2022/10/23 11:45:35;;;;;;;12.73;7.00;;;15.20;99.90;;;;;;5056883;28;20597;-81
2022/10/23 11:48:12;;;;;;;16.23;8.05;;;15.20;99.90;;;;;;5063774;28;20149;-81
2022/10/23 11:50:44;;;;;;;13.90;5.70;;;15.20;99.90;;;;;;5067316;28;20047;-80
2022/10/23 11:53:31;;;;;;;21.13;10.73;;;15.30;99.90;;;;;;5046916;28;20044;-87
2022/10/23 11:56:03;;;;;;;12.02;6.32;;;15.30;99.90;;;;;;5065569;28;20056;-86
2022/10/23 11:58:52;;;;;;;10.52;4.55;;;15.30;99.90;;;;;;5044165;28;20055;-80
2022/10/23 12:01:30;;;;;;;14.40;5.13;;;15.40;99.90;;;;;;5066248;28;20040;-81
2022/10/23 12:04:11;;;;;;;12.60;4.80;;;15.40;99.90;;;;;;5049037;28;20385;-84
2022/10/23 12:06:41;;;;;;;7.05;4.65;;;15.50;99.90;;;;;;5065043;28;20072;-83
2022/10/23 12:09:43;;;;;;;12.68;5.40;;;15.50;99.90;;;;;;5064805;28;20040;-83
2022/10/23 12:12:09;;;;;;;10.57;4.45;;;15.50;99.90;;;;;;5066242;28;20036;-86
2022/10/23 12:14:41;;;;;;;7.97;4.40;;;15.50;99.90;;;;;;5043258;28;20052;-82
2022/10/23 12:17:21;;;;;;;9.20;4.35;;;15.50;99.90;;;;;;5064632;28;20144;-81
2022/10/23 12:20:07;;;;;;;9.88;4.97;;;15.60;99.90;;;;;;5046269;28;20044;-85
2022/10/23 12:22:50;;;;;;;9.75;4.40;;;15.60;99.90;;;;;;5064184;28;20096;-81
2022/10/23 12:25:22;;;;;;;12.43;4.85;;;15.60;99.90;;;;;;5065387;28;20072;-79
2022/10/23 12:28:21;;;;;;;7.88;4.28;;;15.70;99.90;;;;;;5042530;28;20062;-80
2022/10/23 12:31:25;;;;;;;9.82;4.30;;;15.60;99.90;;;;;;5044131;28;20056;-83
2022/10/23 12:34:12;;;;;;;8.45;4.18;;;15.70;99.90;;;;;;5059718;28;20060;-84
2022/10/23 12:36:53;;;;;;;9.50;5.43;;;15.70;99.90;;;;;;5043096;28;20128;-83
2022/10/23 12:39:27;;;;;;;7.90;4.57;;;15.70;99.90;;;;;;5060935;28;20032;-82
2022/10/23 12:41:53;;;;;;;13.32;5.72;;;15.80;99.90;;;;;;5068514;28;20594;-86
2022/10/23 12:44:20;;;;;;;10.80;4.20;;;15.80;99.90;;;;;;5066297;28;20055;-84
2022/10/23 12:46:48;;;;;;;10.57;4.40;;;15.80;99.90;;;;;;5062466;28;20059;-82
2022/10/23 12:49:17;;;;;;;9.32;4.80;;;15.90;99.90;;;;;;5062439;28;20052;-81
2022/10/23 12:51:44;;;;;;;8.48;4.50;;;15.90;99.90;;;;;;5064604;28;20049;-85
2022/10/23 12:54:20;;;;;;;10.05;4.53;;;15.90;99.90;;;;;;5063569;28;20535;-82